Time;durP1;ratioP1;P1;durP2;ratioP2;P2;SDS_P1;SDS_P2;PMS_P1;PMS_P2;Temp;Humidity;BMP_temperature;BMP_pressure;BME280_temperature;BME280_humidity;BME280_pressure;Samples;Min_cycle;Max_cycle;Signal;HPM_P1;HPM_P2
2022/05/17 00:02:18;;;;;;;11.30;5.00;;;;;12.60;97609.00;;;;111458;1243;41256;-68
2022/05/17 00:04:49;;;;;;;11.00;4.60;;;;;12.56;97604.00;;;;111288;1244;41261;-66
2022/05/17 00:07:21;;;;;;;9.20;4.00;;;;;12.50;97603.20;;;;111541;1245;41512;-67
2022/05/17 00:09:52;;;;;;;8.50;4.10;;;;;12.50;97601.20;;;;111199;1246;41146;-69
2022/05/17 00:12:22;;;;;;;;;;;;;12.50;97603.80;;;;111447;1244;41929;-68
2022/05/17 00:14:52;;;;;;;10.50;5.00;;;;;12.40;97601.40;;;;111772;1244;41434;-69
2022/05/17 00:17:23;;;;;;;10.00;4.10;;;;;12.40;97604.40;;;;111799;1241;41609;-68
2022/05/17 00:19:54;;;;;;;12.30;5.40;;;;;12.30;97596.60;;;;111575;1244;41255;-67
2022/05/17 00:22:25;;;;;;;12.60;6.00;;;;;12.20;97597.20;;;;111569;1243;41540;-67
2022/05/17 00:24:56;;;;;;;11.20;5.70;;;;;12.10;97599.00;;;;111721;1242;41489;-69
2022/05/17 00:27:26;;;;;;;11.50;5.50;;;;;12.10;97601.00;;;;111583;1244;41298;-69
2022/05/17 00:29:56;;;;;;;9.10;4.10;;;;;12.00;97604.60;;;;111493;1244;41271;-68
2022/05/17 00:32:27;;;;;;;11.00;4.10;;;;;12.00;97599.40;;;;111559;1244;41255;-69
2022/05/17 00:34:58;;;;;;;9.90;3.70;;;;;12.00;97600.40;;;;111785;1243;41186;-69
2022/05/17 00:37:28;;;;;;;10.10;3.70;;;;;11.96;97596.40;;;;111513;1244;41894;-69
2022/05/17 00:40:00;;;;;;;9.80;5.00;;;;;11.90;97595.00;;;;111884;1241;42356;-68
2022/05/17 00:42:31;;;;;;;11.60;5.90;;;;;11.90;97598.80;;;;111490;1244;41591;-69
2022/05/17 00:45:03;;;;;;;15.40;6.60;;;;;11.80;97588.80;;;;111613;1241;42371;-68
2022/05/17 00:47:38;;;;;;;12.70;5.60;;;;;11.70;97593.60;;;;111619;1244;41134;-67
2022/05/17 00:50:27;;;;;;;11.00;5.20;;;;;11.70;97594.40;;;;111580;1244;41152;-68
2022/05/17 00:53:20;;;;;;;12.20;6.00;;;;;11.70;97594.60;;;;111544;1243;41242;-68
2022/05/17 00:56:12;;;;;;;12.70;6.00;;;;;11.70;97595.80;;;;111433;1244;41388;-68
2022/05/17 00:58:49;;;;;;;11.40;6.00;;;;;11.70;97602.40;;;;111619;1244;41156;-68
2022/05/17 01:01:24;;;;;;;11.30;5.50;;;;;11.70;97597.00;;;;111741;1244;41595;-66
2022/05/17 01:03:57;;;;;;;15.30;6.20;;;;;11.70;97597.80;;;;111390;1244;41154;-68
2022/05/17 01:06:32;;;;;;;15.60;6.40;;;;;11.60;97601.00;;;;111505;1244;41308;-68
2022/05/17 01:09:04;;;;;;;12.90;6.70;;;;;11.60;97606.60;;;;111853;1241;41146;-69
2022/05/17 01:11:35;;;;;;;15.50;6.70;;;;;11.52;97603.40;;;;111713;1243;41152;-69
2022/05/17 01:16:54;;;;;;;12.30;6.20;;;;;11.30;97603.80;;;;111528;1245;41131;-68
2022/05/17 01:19:26;;;;;;;11.00;6.00;;;;;11.20;97600.80;;;;111476;1244;41195;-69
2022/05/17 01:21:57;;;;;;;11.30;5.40;;;;;11.10;97604.20;;;;111494;1244;41615;-68
2022/05/17 01:24:28;;;;;;;9.90;4.90;;;;;11.10;97604.40;;;;111537;1244;41254;-69
2022/05/17 01:27:00;;;;;;;;;;;;;11.10;97600.20;;;;111512;1245;41726;-70
2022/05/17 01:29:36;;;;;;;;;;;;;11.10;97597.40;;;;111523;1243;41334;-68
2022/05/17 01:32:09;;;;;;;9.70;4.80;;;;;11.10;97594.60;;;;111570;1244;41716;-68
2022/05/17 01:34:42;;;;;;;10.40;4.80;;;;;11.10;97597.40;;;;111657;1244;41953;-69
2022/05/17 01:37:13;;;;;;;11.20;5.40;;;;;11.10;97596.00;;;;111571;1244;41173;-67
2022/05/17 01:39:44;;;;;;;10.00;5.50;;;;;11.10;97602.00;;;;111427;1244;41172;-68
2022/05/17 01:42:17;;;;;;;10.70;5.20;;;;;11.10;97601.80;;;;111418;1245;41144;-67
2022/05/17 01:44:48;;;;;;;15.00;6.30;;;;;11.08;97597.00;;;;111393;1244;41161;-67
2022/05/17 01:47:18;;;;;;;11.20;5.20;;;;;11.00;97594.80;;;;111478;1244;41200;-69
2022/05/17 01:49:49;;;;;;;10.80;5.40;;;;;10.90;97596.00;;;;111536;1245;41640;-70
2022/05/17 01:52:20;;;;;;;9.40;4.60;;;;;10.90;97593.80;;;;111388;1244;41158;-67
2022/05/17 01:54:52;;;;;;;10.40;4.70;;;;;10.82;97594.20;;;;111578;1244;41148;-68
2022/05/17 01:57:22;;;;;;;8.80;4.40;;;;;10.80;97593.60;;;;111660;1245;41432;-68
2022/05/17 01:59:53;;;;;;;10.50;4.70;;;;;10.74;97588.80;;;;111303;1245;41256;-67
2022/05/17 02:02:23;;;;;;;10.60;5.60;;;;;10.70;97592.80;;;;111483;1244;41257;-67
2022/05/17 02:04:56;;;;;;;15.00;5.30;;;;;10.70;97590.20;;;;111469;1244;41187;-68
2022/05/17 02:07:26;;;;;;;10.20;5.00;;;;;10.60;97583.80;;;;111487;1244;41191;-68
2022/05/17 02:09:56;;;;;;;9.50;4.40;;;;;10.60;97583.80;;;;111357;1244;41144;-68
2022/05/17 02:12:26;;;;;;;;;;;;;10.60;97587.20;;;;111455;1244;42310;-68
2022/05/17 02:14:57;;;;;;;11.20;5.10;;;;;10.50;97586.40;;;;111532;1243;42520;-66
2022/05/17 02:17:27;;;;;;;10.90;4.70;;;;;10.50;97582.40;;;;111596;1243;42650;-68
2022/05/17 02:20:03;;;;;;;9.40;4.50;;;;;10.50;97585.80;;;;111486;1243;41178;-67
2022/05/17 02:22:33;;;;;;;8.20;4.00;;;;;10.40;97590.20;;;;111228;1247;41257;-69
2022/05/17 02:25:05;;;;;;;11.90;4.40;;;;;10.40;97584.80;;;;111461;1244;41630;-67
2022/05/17 02:27:35;;;;;;;;;;;;;10.32;97584.40;;;;111549;1244;41141;-69
2022/05/17 02:30:10;;;;;;;9.40;4.20;;;;;10.30;97585.60;;;;111642;1243;41148;-65
2022/05/17 02:32:40;;;;;;;9.80;4.90;;;;;10.24;97584.00;;;;111517;1244;41179;-65
2022/05/17 02:35:11;;;;;;;;;;;;;10.20;97588.00;;;;111526;1243;41164;-68
2022/05/17 02:37:41;;;;;;;13.40;6.80;;;;;10.10;97588.00;;;;111505;1244;41729;-68
2022/05/17 02:40:12;;;;;;;10.90;5.40;;;;;10.00;97590.40;;;;111529;1245;41516;-68
2022/05/17 02:42:42;;;;;;;;;;;;;10.00;97591.40;;;;111526;1244;41996;-66
2022/05/17 02:45:12;;;;;;;9.00;4.50;;;;;9.90;97592.00;;;;111555;1244;41586;-68
2022/05/17 02:47:43;;;;;;;10.80;5.00;;;;;9.90;97591.20;;;;111493;1243;41813;-70
2022/05/17 02:50:14;;;;;;;11.70;5.80;;;;;9.90;97587.20;;;;111179;1247;41260;-68
2022/05/17 02:52:44;;;;;;;11.60;5.40;;;;;9.90;97592.00;;;;111517;1244;41951;-66
2022/05/17 02:55:15;;;;;;;9.90;4.50;;;;;9.80;97594.20;;;;111560;1243;41292;-68
2022/05/17 02:57:45;;;;;;;10.50;5.10;;;;;9.80;97592.60;;;;111575;1244;41141;-69
2022/05/17 03:00:16;;;;;;;9.80;4.60;;;;;9.88;97593.80;;;;111463;1244;41406;-69
2022/05/17 03:02:45;;;;;;;;;;;;;9.90;97596.40;;;;111399;1244;41178;-67
2022/05/17 03:05:15;;;;;;;9.80;4.70;;;;;9.86;97599.60;;;;111519;1244;41124;-69
2022/05/17 03:07:45;;;;;;;11.30;5.70;;;;;9.84;97599.20;;;;111468;1244;41730;-66
2022/05/17 03:10:17;;;;;;;11.50;6.40;;;;;9.80;97596.00;;;;111241;1246;41134;-68
2022/05/17 03:12:47;;;;;;;13.20;6.80;;;;;9.80;97593.20;;;;111444;1245;41161;-65
2022/05/17 03:15:20;;;;;;;13.20;6.80;;;;;9.78;97596.00;;;;111480;1244;41147;-68
2022/05/17 03:17:50;;;;;;;14.80;7.80;;;;;9.70;97594.60;;;;111626;1243;41145;-68
2022/05/17 03:20:20;;;;;;;16.00;7.50;;;;;9.62;97593.20;;;;111578;1244;41124;-68
2022/05/17 03:22:50;;;;;;;12.10;6.10;;;;;9.60;97590.80;;;;111484;1244;41148;-67
2022/05/17 03:25:20;;;;;;;13.00;5.90;;;;;9.60;97597.80;;;;111289;1245;41273;-69
2022/05/17 03:27:54;;;;;;;10.20;5.00;;;;;9.60;97597.80;;;;111262;1242;41256;-69
2022/05/17 03:30:25;;;;;;;9.80;5.20;;;;;9.70;97595.00;;;;111402;1244;42412;-67
2022/05/17 03:32:55;;;;;;;9.00;4.50;;;;;9.76;97597.80;;;;111281;1244;41264;-69
2022/05/17 03:35:26;;;;;;;9.00;4.70;;;;;9.80;97595.00;;;;111260;1244;41268;-68
2022/05/17 03:37:55;;;;;;;10.70;4.60;;;;;9.90;97597.80;;;;111348;1244;41164;-68
2022/05/17 03:40:26;;;;;;;9.50;4.70;;;;;9.96;97599.60;;;;111377;1245;41952;-66
2022/05/17 03:42:56;;;;;;;9.80;5.10;;;;;10.00;97602.60;;;;111452;1243;41286;-68
2022/05/17 03:45:27;;;;;;;11.70;6.00;;;;;10.10;97597.80;;;;111504;1243;41706;-68
2022/05/17 03:47:57;;;;;;;10.10;5.50;;;;;10.16;97590.60;;;;111375;1245;41248;-68
2022/05/17 03:50:27;;;;;;;10.60;4.70;;;;;10.20;97593.20;;;;111314;1244;42270;-68
2022/05/17 03:52:56;;;;;;;9.80;5.10;;;;;10.30;97592.40;;;;111300;1244;41642;-71
2022/05/17 03:55:26;;;;;;;11.60;5.90;;;;;10.40;97590.20;;;;111547;1243;42096;-70
2022/05/17 03:57:56;;;;;;;13.30;6.30;;;;;10.50;97590.20;;;;111493;1241;41324;-69
2022/05/17 04:00:26;;;;;;;10.80;5.50;;;;;10.74;97590.00;;;;111292;1244;41723;-67
2022/05/17 04:02:57;;;;;;;14.00;6.50;;;;;11.50;97565.20;;;;111513;1243;41719;-68
2022/05/17 04:05:27;;;;;;;13.10;5.90;;;;;12.54;97550.40;;;;111258;1244;41258;-67
2022/05/17 04:07:58;;;;;;;11.60;6.50;;;;;13.44;97544.20;;;;111269;1243;42228;-66
2022/05/17 04:10:27;;;;;;;16.50;7.30;;;;;14.10;97542.20;;;;111362;1244;41142;-68
2022/05/17 04:12:58;;;;;;;13.50;6.80;;;;;14.52;97540.40;;;;111451;1244;41562;-68
2022/05/17 04:15:28;;;;;;;11.10;6.00;;;;;15.20;97544.60;;;;111497;1244;41533;-66
2022/05/17 04:17:59;;;;;;;11.00;5.80;;;;;15.80;97541.40;;;;111480;1244;41147;-68
2022/05/17 04:20:28;;;;;;;11.20;6.00;;;;;16.04;97541.60;;;;111699;1241;41603;-66
2022/05/17 04:22:58;;;;;;;11.30;5.50;;;;;16.34;97538.00;;;;111471;1244;41258;-67
2022/05/17 04:25:33;;;;;;;9.20;4.90;;;;;16.66;97537.80;;;;111221;1244;42452;-66
2022/05/17 04:28:03;;;;;;;10.20;5.10;;;;;17.14;97535.40;;;;111483;1242;41174;-66
2022/05/17 04:30:32;;;;;;;11.30;5.30;;;;;17.74;97535.40;;;;111393;1244;41266;-66
2022/05/17 04:33:02;;;;;;;10.70;4.70;;;;;18.40;97537.40;;;;111381;1243;41263;-67
2022/05/17 04:35:31;;;;;;;11.40;4.80;;;;;19.00;97538.60;;;;111212;1244;42958;-68
2022/05/17 04:38:01;;;;;;;12.00;4.30;;;;;19.60;97538.40;;;;111467;1243;41247;-67
2022/05/17 04:40:31;;;;;;;12.20;4.30;;;;;20.20;97533.20;;;;111485;1244;41596;-67
2022/05/17 04:43:00;;;;;;;9.10;3.70;;;;;20.60;97535.20;;;;111602;1244;41146;-67
2022/05/17 04:45:31;;;;;;;8.60;4.20;;;;;21.10;97535.20;;;;111573;1243;41604;-69
2022/05/17 04:48:02;;;;;;;8.80;3.90;;;;;21.50;97535.60;;;;111464;1243;41272;-67
2022/05/17 04:50:32;;;;;;;9.20;4.10;;;;;21.92;97534.40;;;;111457;1244;41366;-68
2022/05/17 04:53:01;;;;;;;10.70;5.30;;;;;22.10;97536.60;;;;111573;1243;41194;-66
2022/05/17 04:55:31;;;;;;;15.40;5.20;;;;;21.90;97542.60;;;;111421;1243;41140;-67
2022/05/17 04:58:01;;;;;;;10.80;4.80;;;;;21.90;97546.60;;;;111503;1244;41712;-66
2022/05/17 05:00:30;;;;;;;11.50;5.50;;;;;21.84;97547.60;;;;111739;1243;41127;-68
2022/05/17 05:03:00;;;;;;;8.30;3.90;;;;;21.70;97543.80;;;;111429;1244;41238;-67
2022/05/17 05:05:34;;;;;;;11.30;4.30;;;;;21.94;97548.00;;;;111301;1243;42160;-69
2022/05/17 05:08:04;;;;;;;10.10;4.70;;;;;22.20;97546.00;;;;111577;1243;41339;-67
2022/05/17 05:10:33;;;;;;;10.20;4.10;;;;;22.40;97543.20;;;;111630;1242;41601;-67
2022/05/17 05:13:03;;;;;;;10.50;4.20;;;;;22.76;97539.40;;;;111370;1244;41137;-68
2022/05/17 05:15:32;;;;;;;8.20;3.70;;;;;23.20;97540.40;;;;111450;1244;41247;-66
2022/05/17 05:18:03;;;;;;;8.50;3.80;;;;;23.50;97540.20;;;;111506;1243;41391;-67
2022/05/17 05:20:32;;;;;;;9.40;3.40;;;;;23.54;97548.80;;;;111329;1244;41138;-65
2022/05/17 05:23:03;;;;;;;12.10;4.20;;;;;23.42;97539.60;;;;111511;1243;41712;-66
2022/05/17 05:25:32;;;;;;;10.50;4.20;;;;;23.34;97539.20;;;;111524;1244;41594;-66
2022/05/17 05:28:03;;;;;;;8.70;4.00;;;;;23.04;97540.80;;;;111567;1244;41616;-66
2022/05/17 05:30:33;;;;;;;15.60;4.70;;;;;23.10;97538.80;;;;111419;1244;41174;-68
2022/05/17 05:33:06;;;;;;;7.80;3.50;;;;;22.96;97539.40;;;;111476;1244;41136;-67
2022/05/17 05:35:35;;;;;;;9.80;4.00;;;;;23.24;97537.80;;;;111466;1244;41923;-67
2022/05/17 05:38:05;;;;;;;10.60;4.10;;;;;23.48;97535.40;;;;111488;1244;41721;-68
2022/05/17 05:40:34;;;;;;;8.60;3.90;;;;;23.80;97539.00;;;;111454;1244;41177;-68
2022/05/17 05:43:04;;;;;;;12.30;4.40;;;;;23.90;97546.40;;;;111439;1243;41256;-69
2022/05/17 05:45:34;;;;;;;16.60;3.60;;;;;23.90;97542.80;;;;111555;1243;41163;-68
2022/05/17 05:48:04;;;;;;;8.80;3.60;;;;;24.00;97535.60;;;;111486;1243;41575;-67
2022/05/17 05:50:34;;;;;;;9.40;3.50;;;;;24.00;97539.80;;;;111478;1243;41652;-67
2022/05/17 05:53:09;;;;;;;8.20;3.40;;;;;24.20;97538.80;;;;111556;1246;41144;-65
2022/05/17 05:55:38;;;;;;;8.80;3.30;;;;;24.60;97536.60;;;;111392;1244;42268;-66
2022/05/17 05:58:08;;;;;;;6.40;2.90;;;;;24.90;97536.40;;;;111377;1244;42190;-67
2022/05/17 06:00:38;;;;;;;9.10;3.80;;;;;25.30;97536.00;;;;111521;1244;41168;-69
2022/05/17 06:03:08;;;;;;;7.70;3.30;;;;;25.46;97539.00;;;;111533;1244;41145;-70
2022/05/17 06:05:37;;;;;;;8.30;3.30;;;;;25.50;97537.20;;;;111414;1243;41686;-69
2022/05/17 06:08:07;;;;;;;7.60;3.10;;;;;25.80;97539.00;;;;111441;1242;41651;-66
2022/05/17 06:10:36;;;;;;;8.80;3.20;;;;;26.00;97536.60;;;;111429;1244;41268;-67
2022/05/17 06:13:05;;;;;;;9.90;3.40;;;;;26.30;97535.60;;;;111528;1244;41144;-67
2022/05/17 06:15:35;;;;;;;8.90;3.40;;;;;26.60;97533.60;;;;111480;1245;41315;-68
2022/05/17 06:18:05;;;;;;;7.60;2.90;;;;;26.86;97530.40;;;;111437;1243;41153;-67
2022/05/17 06:20:35;;;;;;;7.40;2.80;;;;;26.90;97527.00;;;;111494;1244;41671;-70
2022/05/17 06:23:06;;;;;;;6.70;2.60;;;;;27.22;97530.00;;;;111556;1244;41576;-69
2022/05/17 06:25:35;;;;;;;6.70;2.70;;;;;27.70;97532.80;;;;111558;1243;41127;-68
2022/05/17 06:28:04;;;;;;;7.10;2.90;;;;;28.02;97529.00;;;;111441;1241;41187;-67
2022/05/17 06:30:34;;;;;;;7.30;2.90;;;;;28.50;97528.60;;;;111467;1243;41125;-68
2022/05/17 06:33:09;;;;;;;7.90;2.90;;;;;28.74;97525.00;;;;111140;1246;41769;-67
2022/05/17 06:35:39;;;;;;;7.90;3.40;;;;;28.76;97525.40;;;;111335;1246;42603;-68
2022/05/17 06:38:09;;;;;;;8.80;2.80;;;;;28.86;97526.80;;;;111496;1243;41146;-69
2022/05/17 06:40:38;;;;;;;7.20;2.70;;;;;28.80;97524.40;;;;111188;1245;41144;-67
2022/05/17 06:43:08;;;;;;;10.60;3.90;;;;;29.14;97520.60;;;;111312;1244;41601;-66
2022/05/17 06:45:37;;;;;;;10.00;3.20;;;;;28.70;97513.80;;;;111276;1245;41273;-68
2022/05/17 06:48:07;;;;;;;8.40;3.60;;;;;27.86;97515.60;;;;111484;1246;41619;-69
2022/05/17 06:50:36;;;;;;;9.50;3.80;;;;;26.92;97516.80;;;;111091;1247;41140;-65
2022/05/17 06:53:08;;;;;;;11.10;3.40;;;;;26.60;97518.80;;;;111326;1244;41597;-69
2022/05/17 06:55:38;;;;;;;10.70;3.40;;;;;25.58;97519.40;;;;111287;1244;41409;-68
2022/05/17 06:58:08;;;;;;;8.60;3.60;;;;;24.80;97521.80;;;;111635;1244;42167;-68
2022/05/17 07:00:37;;;;;;;9.60;3.00;;;;;24.50;97519.40;;;;111469;1244;41167;-68
2022/05/17 07:03:06;;;;;;;8.20;3.30;;;;;24.60;97520.40;;;;111471;1244;41177;-68
2022/05/17 07:05:36;;;;;;;8.90;2.90;;;;;24.72;97521.40;;;;111506;1243;41157;-67
2022/05/17 07:08:06;;;;;;;17.70;3.30;;;;;24.90;97520.80;;;;111473;1243;41608;-66
2022/05/17 07:13:23;;;;;;;10.90;3.00;;;;;25.20;97507.20;;;;111367;1244;41137;-69
2022/05/17 07:15:53;;;;;;;8.70;2.80;;;;;25.18;97508.20;;;;111522;1244;41775;-68
2022/05/17 07:18:26;;;;;;;6.00;2.20;;;;;25.20;97510.40;;;;111148;1246;41181;-69
2022/05/17 07:20:58;;;;;;;6.00;2.40;;;;;25.40;97516.00;;;;111361;1244;42386;-66
2022/05/17 07:23:27;;;;;;;5.10;2.20;;;;;25.60;97516.00;;;;111338;1243;41333;-68
2022/05/17 07:25:58;;;;;;;7.80;2.30;;;;;25.82;97518.40;;;;111266;1245;41257;-68
2022/05/17 07:28:27;;;;;;;7.80;2.20;;;;;26.00;97513.00;;;;111490;1243;41952;-66
2022/05/17 07:30:57;;;;;;;8.80;2.40;;;;;25.78;97510.00;;;;111231;1244;42123;-68
2022/05/17 07:33:28;;;;;;;5.70;2.20;;;;;25.30;97502.60;;;;111534;1243;41268;-68
2022/05/17 07:35:57;;;;;;;6.20;2.20;;;;;25.22;97498.40;;;;111521;1243;41169;-68
2022/05/17 07:38:27;;;;;;;5.70;2.00;;;;;25.30;97492.60;;;;111516;1243;41720;-67
2022/05/17 07:40:57;;;;;;;5.80;2.30;;;;;25.40;97491.80;;;;111488;1243;41164;-69
2022/05/17 07:43:26;;;;;;;7.30;2.40;;;;;25.30;97496.20;;;;111373;1244;41271;-67
2022/05/17 07:45:56;;;;;;;6.70;2.10;;;;;25.08;97491.60;;;;111471;1243;41396;-67
2022/05/17 07:48:26;;;;;;;7.20;2.30;;;;;25.22;97497.20;;;;111542;1244;41151;-68
2022/05/17 07:50:56;;;;;;;5.90;2.10;;;;;25.12;97498.80;;;;111406;1243;41809;-68
2022/05/17 07:53:25;;;;;;;6.20;1.90;;;;;25.50;97499.60;;;;111365;1243;41713;-66
2022/05/17 07:55:54;;;;;;;8.90;2.60;;;;;25.74;97500.20;;;;111510;1243;41151;-66
2022/05/17 07:58:24;;;;;;;8.50;2.30;;;;;26.00;97501.20;;;;111426;1243;41137;-65
2022/05/17 08:00:53;;;;;;;6.70;2.30;;;;;26.30;97498.20;;;;111387;1243;41118;-65
2022/05/17 08:03:23;;;;;;;5.10;2.20;;;;;26.22;97497.60;;;;111475;1243;41939;-67
2022/05/17 08:05:55;;;;;;;6.80;2.00;;;;;26.52;97494.60;;;;111557;1246;41017;-65
2022/05/17 08:08:25;;;;;;;7.10;2.60;;;;;27.12;97495.00;;;;111192;1243;41311;-67
2022/05/17 08:10:54;;;;;;;4.90;2.10;;;;;27.28;97493.80;;;;111486;1243;41825;-67
2022/05/17 08:13:24;;;;;;;5.20;2.00;;;;;27.30;97490.80;;;;111519;1243;41743;-66
2022/05/17 08:15:54;;;;;;;8.30;2.60;;;;;27.70;97489.60;;;;111474;1244;41506;-67
2022/05/17 08:18:23;;;;;;;7.30;2.50;;;;;27.88;97485.00;;;;111469;1243;41166;-69
2022/05/17 08:20:53;;;;;;;9.90;2.70;;;;;27.70;97489.40;;;;111628;1244;41245;-69
2022/05/17 08:23:22;;;;;;;8.30;2.60;;;;;27.90;97480.20;;;;111609;1243;41144;-69
2022/05/17 08:28:41;;;;;;;9.60;2.70;;;;;28.72;97470.20;;;;111641;1243;41144;-68
2022/05/17 08:31:10;;;;;;;4.90;2.20;;;;;29.02;97473.80;;;;111525;1244;41174;-70
2022/05/17 08:33:40;;;;;;;7.30;2.50;;;;;29.66;97465.40;;;;111559;1243;41160;-69
2022/05/17 08:36:11;;;;;;;7.20;2.50;;;;;30.28;97458.40;;;;111630;1242;41559;-69
2022/05/17 08:38:43;;;;;;;8.20;2.70;;;;;30.24;97464.20;;;;111525;1243;41825;-69
2022/05/17 08:41:38;;;;;;;9.50;2.20;;;;;29.90;97462.40;;;;111450;1244;41242;-68
2022/05/17 08:44:13;;;;;;;6.60;2.10;;;;;30.00;97463.60;;;;111411;1243;42738;-67
2022/05/17 08:47:11;;;;;;;5.40;2.10;;;;;30.84;97460.40;;;;111580;1241;41154;-68
2022/05/17 08:50:08;;;;;;;10.10;3.00;;;;;31.40;97450.20;;;;111601;1244;41341;-68
2022/05/17 08:52:38;;;;;;;7.40;2.60;;;;;30.24;97455.60;;;;111553;1243;41594;-67
2022/05/17 08:55:20;;;;;;;5.70;2.20;;;;;29.88;97460.80;;;;111600;1243;42455;-68
2022/05/17 08:57:55;;;;;;;5.90;2.30;;;;;30.20;97461.20;;;;111599;1243;41092;-69
2022/05/17 09:00:33;;;;;;;14.10;3.40;;;;;30.14;97461.40;;;;111567;1244;41153;-69
2022/05/17 09:03:56;;;;;;;8.70;3.00;;;;;29.38;97462.60;;;;110969;1243;42035;-67
2022/05/17 09:06:52;;;;;;;8.40;3.40;;;;;28.64;97461.80;;;;111507;1245;41197;-69
2022/05/17 09:09:30;;;;;;;12.40;3.10;;;;;27.80;97467.00;;;;111515;1245;41190;-67
2022/05/17 09:12:31;;;;;;;9.70;3.80;;;;;27.78;97462.80;;;;111493;1243;42403;-68
2022/05/17 09:15:02;;;;;;;11.50;3.50;;;;;27.70;97455.80;;;;111489;1244;41849;-67
2022/05/17 09:17:34;;;;;;;7.80;2.70;;;;;28.14;97456.60;;;;111062;1247;41155;-65
2022/05/17 09:20:04;;;;;;;9.40;3.00;;;;;28.32;97454.00;;;;111547;1243;41843;-66
2022/05/17 09:22:33;;;;;;;7.30;3.00;;;;;28.70;97448.40;;;;111505;1244;42438;-66
2022/05/17 09:25:13;;;;;;;9.20;3.40;;;;;28.66;97448.60;;;;111469;1244;42382;-68
2022/05/17 09:27:50;;;;;;;12.40;4.30;;;;;28.20;97447.00;;;;111638;1244;41397;-68
2022/05/17 09:30:22;;;;;;;9.80;3.50;;;;;28.28;97446.00;;;;111489;1243;42431;-70
2022/05/17 09:33:07;;;;;;;9.20;3.20;;;;;28.14;97444.80;;;;111496;1245;41148;-68
2022/05/17 09:36:00;;;;;;;9.30;3.30;;;;;27.82;97441.60;;;;111409;1243;41487;-68
2022/05/17 09:38:36;;;;;;;7.40;3.00;;;;;27.60;97445.60;;;;111527;1243;41681;-66
2022/05/17 09:41:09;;;;;;;10.00;2.90;;;;;27.94;97439.60;;;;111178;1245;41266;-69
2022/05/17 09:43:39;;;;;;;7.10;2.50;;;;;27.90;97433.00;;;;111464;1244;41409;-67
2022/05/17 09:46:10;;;;;;;6.00;2.20;;;;;27.94;97433.40;;;;111515;1242;42352;-67
2022/05/17 09:55:06;;;;;;;7.10;3.00;;;;;27.80;97431.00;;;;110867;1246;41517;-65
2022/05/17 09:57:36;;;;;;;10.60;2.90;;;;;27.44;97431.60;;;;110824;1246;441044;-66
2022/05/17 10:00:12;;;;;;;8.20;2.70;;;;;26.76;97433.80;;;;111262;1244;41651;-65
2022/05/17 10:02:48;;;;;;;14.50;2.50;;;;;26.50;97430.60;;;;111612;1243;41600;-66
2022/05/17 10:05:27;;;;;;;7.20;2.40;;;;;26.38;97432.80;;;;111601;1243;41147;-69
2022/05/17 10:08:01;;;;;;;7.40;2.70;;;;;26.30;97430.80;;;;111491;1244;41132;-66
2022/05/17 10:10:39;;;;;;;7.90;2.90;;;;;26.40;97429.40;;;;111447;1242;41569;-65
2022/05/17 10:13:47;;;;;;;6.20;2.30;;;;;26.20;97427.00;;;;111284;1245;42359;-65
2022/05/17 10:16:25;;;;;;;6.60;2.30;;;;;25.90;97428.00;;;;110791;1251;41128;-64
2022/05/17 10:19:04;;;;;;;9.00;2.90;;;;;25.84;97431.60;;;;110767;1249;41148;-66
2022/05/17 10:21:41;;;;;;;5.70;2.30;;;;;25.80;97434.80;;;;110788;1250;41301;-65
2022/05/17 10:24:22;;;;;;;7.00;2.70;;;;;25.88;97436.80;;;;110848;1249;41747;-68
2022/05/17 10:27:17;;;;;;;9.10;2.80;;;;;25.80;97436.00;;;;110684;1249;41141;-68
2022/05/17 10:29:49;;;;;;;7.50;2.80;;;;;25.74;97437.60;;;;110817;1252;42462;-68
2022/05/17 10:32:35;;;;;;;6.90;2.70;;;;;25.50;97437.20;;;;110834;1251;41335;-69
2022/05/17 10:35:27;;;;;;;;;;;;;25.30;97436.60;;;;110757;1249;41274;-68
2022/05/17 10:37:59;;;;;;;8.20;2.80;;;;;25.24;97441.60;;;;110762;1249;41169;-69
2022/05/17 10:40:31;;;;;;;10.30;3.10;;;;;25.10;97442.00;;;;110642;1252;41159;-69
2022/05/17 10:43:02;;;;;;;10.70;3.30;;;;;25.10;97443.20;;;;110683;1251;41370;-68
2022/05/17 10:45:33;;;;;;;7.50;3.00;;;;;25.20;97439.60;;;;110783;1252;41266;-66
2022/05/17 10:48:07;;;;;;;6.60;2.70;;;;;25.10;97446.60;;;;111210;1243;41193;-67
2022/05/17 10:50:41;;;;;;;6.70;2.70;;;;;25.14;97440.60;;;;111527;1243;42198;-69
2022/05/17 10:53:37;;;;;;;8.20;3.20;;;;;25.10;97441.40;;;;111594;1244;41615;-66
2022/05/17 10:56:15;;;;;;;8.80;3.20;;;;;25.00;97443.20;;;;111443;1243;41143;-69
2022/05/17 10:59:12;;;;;;;11.80;3.10;;;;;24.70;97440.80;;;;111318;1244;41595;-66
2022/05/17 11:02:09;;;;;;;8.00;3.00;;;;;24.50;97440.40;;;;111547;1243;41163;-66
2022/05/17 11:04:59;;;;;;;12.40;3.10;;;;;24.40;97437.40;;;;111531;1242;41250;-69
2022/05/17 11:07:47;;;;;;;7.60;2.70;;;;;24.10;97438.00;;;;111558;1241;41570;-68
2022/05/17 11:10:19;;;;;;;7.40;2.80;;;;;24.10;97442.00;;;;111649;1241;41897;-66
2022/05/17 11:13:02;;;;;;;10.40;3.00;;;;;24.10;97442.80;;;;111421;1243;42831;-68
2022/05/17 11:15:42;;;;;;;7.50;3.00;;;;;24.10;97458.80;;;;111371;1244;41508;-70
2022/05/17 11:18:20;;;;;;;11.20;3.30;;;;;24.10;97490.00;;;;111608;1243;41173;-69
2022/05/17 11:20:55;;;;;;;9.90;3.30;;;;;23.74;97483.80;;;;111583;1244;42058;-68
2022/05/17 11:23:45;;;;;;;9.10;3.10;;;;;23.40;97484.80;;;;111583;1243;41143;-69
2022/05/17 11:26:28;;;;;;;7.00;2.90;;;;;23.00;97488.40;;;;111548;1243;41139;-67
2022/05/17 11:29:18;;;;;;;9.90;4.10;;;;;22.74;97495.40;;;;111457;1243;41135;-69
2022/05/17 11:31:52;;;;;;;14.40;4.30;;;;;22.48;97501.20;;;;111366;1243;41680;-67
2022/05/17 11:34:31;;;;;;;12.10;3.90;;;;;22.20;97501.80;;;;111438;1243;42259;-66
2022/05/17 11:37:02;;;;;;;10.90;3.80;;;;;21.98;97503.00;;;;111552;1243;42358;-69
2022/05/17 11:39:31;;;;;;;10.00;4.20;;;;;21.80;97514.60;;;;111599;1243;41132;-67
2022/05/17 11:42:10;;;;;;;11.10;4.20;;;;;21.66;97512.40;;;;111577;1241;41399;-65
2022/05/17 11:44:41;;;;;;;12.00;4.40;;;;;21.50;97520.40;;;;111267;1246;41158;-69
2022/05/17 11:47:31;;;;;;;11.00;4.10;;;;;21.50;97516.60;;;;111499;1243;41144;-66
2022/05/17 11:50:15;;;;;;;9.30;3.90;;;;;21.46;97519.80;;;;111669;1243;41268;-69
2022/05/17 11:52:47;;;;;;;9.20;3.90;;;;;21.24;97523.80;;;;111444;1244;41776;-69
2022/05/17 11:55:19;;;;;;;9.80;3.80;;;;;21.04;97522.40;;;;111543;1243;41210;-70
2022/05/17 11:57:48;;;;;;;10.00;3.90;;;;;20.90;97520.40;;;;111621;1243;41132;-67
2022/05/17 12:00:23;;;;;;;9.90;4.50;;;;;20.66;97518.00;;;;111460;1244;42011;-66
2022/05/17 12:02:54;;;;;;;9.90;4.00;;;;;20.52;97522.20;;;;111462;1244;41537;-65
2022/05/17 12:05:46;;;;;;;10.00;3.60;;;;;20.40;97523.20;;;;111372;1243;41644;-68
2022/05/17 12:08:27;;;;;;;8.10;3.40;;;;;20.20;97528.80;;;;111404;1243;41243;-67
2022/05/17 12:11:12;;;;;;;9.00;3.60;;;;;20.10;97529.60;;;;111557;1243;41203;-69
2022/05/17 12:13:53;;;;;;;10.60;3.40;;;;;20.10;97525.40;;;;111571;1245;41200;-68
2022/05/17 12:16:31;;;;;;;8.10;3.80;;;;;20.10;97524.60;;;;111149;1246;41165;-68
2022/05/17 12:19:19;;;;;;;9.80;3.70;;;;;20.02;97524.00;;;;111333;1243;40915;-68
2022/05/17 12:22:08;;;;;;;10.90;3.20;;;;;20.02;97523.20;;;;111446;1244;42511;-69
2022/05/17 12:24:43;;;;;;;8.40;3.80;;;;;20.00;97522.40;;;;111480;1243;42155;-68
2022/05/17 12:27:27;;;;;;;10.80;4.10;;;;;19.98;97521.80;;;;111419;1243;41569;-66
2022/05/17 12:33:11;;;;;;;10.00;3.30;;;;;19.90;97511.20;;;;111389;1244;41253;-68
2022/05/17 12:35:41;;;;;;;10.60;3.30;;;;;19.92;97512.00;;;;111166;1245;42218;-67
2022/05/17 12:43:49;;;;;;;8.10;3.20;;;;;20.00;97512.80;;;;111401;1244;41175;-66
2022/05/17 12:46:24;;;;;;;8.60;3.20;;;;;20.06;97503.00;;;;111512;1244;41766;-64
2022/05/17 12:48:54;;;;;;;7.50;3.00;;;;;20.10;97505.20;;;;111504;1243;41133;-67
2022/05/17 12:51:24;;;;;;;7.70;3.40;;;;;20.10;97506.60;;;;111349;1243;41607;-65
2022/05/17 12:53:55;;;;;;;9.20;4.00;;;;;20.10;97503.60;;;;111421;1245;42383;-67
2022/05/17 12:56:36;;;;;;;9.50;3.80;;;;;20.18;97497.40;;;;111451;1243;41900;-67
2022/05/17 12:59:06;;;;;;;9.40;4.00;;;;;20.12;97496.80;;;;111460;1244;41707;-68
2022/05/17 13:01:39;;;;;;;8.50;3.60;;;;;20.00;97493.80;;;;111479;1244;41187;-66